createdAt,value
2023-03-22T00:00:18.948Z,11.48
2023-03-22T00:02:46.077Z,9.35
2023-03-22T00:05:12.988Z,11.15
2023-03-22T00:07:40.962Z,9.95
2023-03-22T00:10:08.873Z,9.23
2023-03-22T00:12:35.803Z,11.45
2023-03-22T00:15:02.974Z,12.35
2023-03-22T00:17:30.701Z,14.35
2023-03-22T00:19:58.361Z,14.15
2023-03-22T00:22:26.115Z,10.68
2023-03-22T00:24:53.008Z,10.85
2023-03-22T00:27:19.873Z,9.45
2023-03-22T00:29:46.752Z,10.13
2023-03-22T00:32:13.636Z,9.50
2023-03-22T00:34:40.594Z,12.68
2023-03-22T00:37:08.024Z,10.27
2023-03-22T00:39:35.097Z,13.80
2023-03-22T00:42:05.827Z,12.55
2023-03-22T00:44:32.971Z,12.95
2023-03-22T00:47:00.628Z,13.32
2023-03-22T00:49:27.739Z,9.63
2023-03-22T00:51:54.857Z,11.10
2023-03-22T00:54:21.859Z,11.38
2023-03-22T00:56:49.912Z,9.90
2023-03-22T00:59:17.413Z,13.18
2023-03-22T01:01:44.469Z,11.82
2023-03-22T01:04:17.855Z,10.88
2023-03-22T01:06:46.998Z,11.18
2023-03-22T01:09:15.092Z,13.60
2023-03-22T01:11:43.727Z,11.20
2023-03-22T01:14:13.704Z,13.05
2023-03-22T01:16:40.918Z,11.13
2023-03-22T01:19:08.355Z,10.60
2023-03-22T01:21:35.406Z,15.95
2023-03-22T01:24:02.332Z,12.40
2023-03-22T01:26:29.214Z,9.90
2023-03-22T01:28:56.328Z,11.38
2023-03-22T01:31:23.570Z,14.02
2023-03-22T01:33:50.793Z,12.15
2023-03-22T01:36:18.103Z,11.63
2023-03-22T01:38:44.965Z,12.75
2023-03-22T01:41:12.154Z,17.75
2023-03-22T01:43:41.879Z,14.00
2023-03-22T01:46:09.589Z,14.43
2023-03-22T01:48:46.043Z,11.82
2023-03-22T01:51:25.274Z,11.63
2023-03-22T01:54:18.422Z,13.95
2023-03-22T01:56:47.098Z,14.20
2023-03-22T01:59:22.407Z,14.90
2023-03-22T02:02:10.812Z,12.93
2023-03-22T02:04:39.365Z,11.52
2023-03-22T02:07:15.594Z,13.05
2023-03-22T02:09:45.735Z,17.15
2023-03-22T02:13:15.373Z,13.43
2023-03-22T02:16:00.035Z,11.98
2023-03-22T02:19:43.420Z,17.55
2023-03-22T02:22:53.130Z,14.68
2023-03-22T02:25:41.641Z,14.23
2023-03-22T02:28:37.558Z,16.85
2023-03-22T02:31:37.521Z,16.88
2023-03-22T02:34:44.447Z,13.32
2023-03-22T02:38:11.814Z,16.52
2023-03-22T02:41:12.196Z,13.18
2023-03-22T02:44:17.163Z,12.70
2023-03-22T02:46:51.633Z,12.73
2023-03-22T02:49:24.399Z,13.60
2023-03-22T02:52:03.489Z,13.73
2023-03-22T02:55:20.190Z,14.88
2023-03-22T02:57:58.765Z,12.70
2023-03-22T03:00:28.156Z,15.05
2023-03-22T03:03:18.269Z,13.10
2023-03-22T03:05:55.836Z,14.57
2023-03-22T03:08:25.433Z,13.80
2023-03-22T03:10:53.807Z,14.30
2023-03-22T03:13:21.241Z,14.93
2023-03-22T03:15:59.245Z,15.63
2023-03-22T03:19:00.524Z,12.70
2023-03-22T03:21:45.227Z,12.70
2023-03-22T03:24:42.724Z,12.25
2023-03-22T03:27:17.658Z,14.95
2023-03-22T03:30:15.344Z,10.95
2023-03-22T03:32:50.287Z,14.20
2023-03-22T03:35:32.501Z,13.73
2023-03-22T03:38:14.944Z,15.93
2023-03-22T03:41:00.741Z,10.82
2023-03-22T03:43:27.735Z,10.85
2023-03-22T03:45:55.809Z,12.77
2023-03-22T03:48:28.393Z,11.02
2023-03-22T03:50:59.094Z,15.60
2023-03-22T03:53:26.337Z,11.82
2023-03-22T03:55:53.357Z,12.57
2023-03-22T03:58:20.426Z,12.95
2023-03-22T04:00:51.091Z,13.88
2023-03-22T04:03:41.016Z,15.75
2023-03-22T04:06:39.457Z,14.77
2023-03-22T04:09:11.885Z,13.17
2023-03-22T04:11:43.037Z,15.13
2023-03-22T04:14:10.942Z,12.98
2023-03-22T04:16:38.457Z,15.55
2023-03-22T04:19:07.986Z,10.88
2023-03-22T04:21:34.862Z,15.55
2023-03-22T04:24:03.637Z,11.77
2023-03-22T04:26:36.475Z,12.45
2023-03-22T04:29:24.456Z,10.73
2023-03-22T04:31:57.180Z,14.30
2023-03-22T04:34:34.991Z,14.10
2023-03-22T04:37:04.272Z,11.93
2023-03-22T04:39:33.107Z,14.32
2023-03-22T04:42:28.523Z,13.68
2023-03-22T04:45:18.614Z,13.00
2023-03-22T04:47:50.894Z,12.38
2023-03-22T04:50:17.996Z,11.93
2023-03-22T04:52:51.178Z,13.23
2023-03-22T04:55:18.245Z,13.02
2023-03-22T04:57:46.051Z,13.23
2023-03-22T05:00:13.630Z,11.15
2023-03-22T05:02:41.788Z,12.20
2023-03-22T05:05:16.693Z,11.32
2023-03-22T05:07:45.668Z,13.35
2023-03-22T05:10:12.553Z,11.65
2023-03-22T05:12:40.401Z,13.18
2023-03-22T05:15:19.281Z,10.93
2023-03-22T05:17:48.182Z,8.07
2023-03-22T05:20:15.933Z,9.52
2023-03-22T05:22:50.450Z,11.40
2023-03-22T05:25:18.947Z,10.30
2023-03-22T05:27:46.487Z,11.65
2023-03-22T05:33:07.174Z,12.05
2023-03-22T05:35:41.924Z,9.43
2023-03-22T05:38:10.896Z,8.95
2023-03-22T05:40:43.091Z,8.25
2023-03-22T05:43:10.728Z,13.18
2023-03-22T05:45:42.391Z,10.32
2023-03-22T05:48:23.168Z,8.68
2023-03-22T05:50:50.181Z,8.38
2023-03-22T05:53:17.617Z,9.13
2023-03-22T05:56:11.307Z,10.48
2023-03-22T05:58:41.195Z,11.95
2023-03-22T06:01:13.096Z,8.45
2023-03-22T06:03:46.570Z,10.10
2023-03-22T06:06:25.016Z,8.85
2023-03-22T06:09:15.966Z,7.63
2023-03-22T06:11:44.211Z,8.55
2023-03-22T06:14:11.916Z,8.40
2023-03-22T06:16:57.395Z,8.38
2023-03-22T06:19:25.579Z,9.35
2023-03-22T06:21:54.847Z,9.07
2023-03-22T06:24:24.406Z,6.63
2023-03-22T06:26:51.491Z,9.27
2023-03-22T06:29:18.833Z,10.18
2023-03-22T06:31:45.937Z,9.88
2023-03-22T06:34:13.180Z,7.68
2023-03-22T06:36:42.489Z,8.43
2023-03-22T06:39:13.818Z,8.55
2023-03-22T06:41:43.849Z,8.43
2023-03-22T06:44:11.002Z,8.63
2023-03-22T06:46:56.070Z,7.25
2023-03-22T06:49:41.505Z,9.40
2023-03-22T06:52:10.046Z,7.05
2023-03-22T06:54:37.272Z,8.65
2023-03-22T06:57:09.709Z,9.30
2023-03-22T06:59:36.730Z,9.68
2023-03-22T07:02:23.182Z,6.78
2023-03-22T07:05:10.579Z,7.63
2023-03-22T07:07:38.763Z,7.45
2023-03-22T07:10:07.844Z,7.85
2023-03-22T07:12:35.206Z,10.07
2023-03-22T07:15:09.727Z,6.88
2023-03-22T07:17:53.884Z,7.07
2023-03-22T07:20:21.368Z,7.50
2023-03-22T07:22:51.814Z,6.68
2023-03-22T07:25:21.439Z,6.35
2023-03-22T07:27:54.172Z,7.15
2023-03-22T07:30:22.453Z,5.95
2023-03-22T07:32:50.001Z,6.53
2023-03-22T07:35:18.896Z,6.90
2023-03-22T07:37:47.361Z,7.63
2023-03-22T07:40:30.596Z,7.90
2023-03-22T07:42:59.082Z,6.30
2023-03-22T07:45:49.895Z,8.90
2023-03-22T07:48:36.058Z,7.95
2023-03-22T07:51:39.243Z,5.85
2023-03-22T07:54:07.793Z,7.55
2023-03-22T07:56:35.725Z,7.32
2023-03-22T07:59:03.178Z,6.78
2023-03-22T08:01:30.408Z,6.45
2023-03-22T08:04:19.547Z,7.03
2023-03-22T08:06:58.715Z,6.43
2023-03-22T08:09:27.299Z,8.23
2023-03-22T08:11:55.383Z,6.95
2023-03-22T08:14:36.017Z,6.90
2023-03-22T08:17:06.650Z,9.25
2023-03-22T08:19:34.876Z,10.10
2023-03-22T08:22:02.380Z,8.50
2023-03-22T08:27:27.267Z,5.22
2023-03-22T08:29:54.965Z,5.38
2023-03-22T08:32:21.852Z,5.32
2023-03-22T08:34:48.870Z,6.65
2023-03-22T08:37:16.124Z,6.75
2023-03-22T08:39:44.983Z,9.93
2023-03-22T08:42:23.846Z,6.75
2023-03-22T08:44:52.574Z,7.63
2023-03-22T08:47:22.006Z,6.32
2023-03-22T08:49:57.466Z,4.20
2023-03-22T08:52:35.654Z,7.78
2023-03-22T08:55:08.612Z,3.30
2023-03-22T08:57:58.742Z,4.57
2023-03-22T09:00:49.038Z,3.13
2023-03-22T09:03:25.059Z,4.95
2023-03-22T09:05:52.945Z,4.50
2023-03-22T09:08:20.677Z,3.83
2023-03-22T09:10:53.269Z,4.80
2023-03-22T09:13:22.798Z,5.55
2023-03-22T09:15:58.636Z,4.30
2023-03-22T09:18:37.923Z,4.03
2023-03-22T09:21:12.355Z,4.15
2023-03-22T09:23:52.477Z,5.10
2023-03-22T09:26:25.624Z,3.67
2023-03-22T09:29:14.513Z,4.43
2023-03-22T09:31:41.734Z,4.25
2023-03-22T09:34:17.837Z,3.60
2023-03-22T09:36:50.065Z,2.70
2023-03-22T09:39:22.695Z,2.22
2023-03-22T09:41:59.367Z,3.17
2023-03-22T09:44:42.741Z,2.85
2023-03-22T09:47:21.663Z,2.50
2023-03-22T09:49:56.841Z,3.97
2023-03-22T09:52:23.845Z,4.18
2023-03-22T09:54:52.883Z,2.42
2023-03-22T09:57:38.944Z,3.78
2023-03-22T10:00:31.289Z,1.67
2023-03-22T10:03:18.333Z,1.88
2023-03-22T10:06:17.596Z,2.47
2023-03-22T10:09:09.162Z,2.80
2023-03-22T10:11:46.258Z,1.92
2023-03-22T10:14:38.310Z,1.95
2023-03-22T10:17:24.016Z,2.17
2023-03-22T10:20:00.571Z,2.70
2023-03-22T10:22:38.327Z,2.28
2023-03-22T10:25:08.419Z,2.47
2023-03-22T10:27:42.989Z,2.40
2023-03-22T10:30:26.218Z,3.30
2023-03-22T10:33:04.601Z,3.50
2023-03-22T10:35:32.478Z,3.22
2023-03-22T10:38:04.842Z,2.33
2023-03-22T10:40:36.275Z,1.65
2023-03-22T10:43:39.060Z,1.80
2023-03-22T10:46:15.542Z,3.72
2023-03-22T10:48:48.511Z,2.65
2023-03-22T10:51:48.210Z,1.38
2023-03-22T10:54:18.825Z,1.55
2023-03-22T10:56:53.067Z,2.67
2023-03-22T10:59:49.725Z,2.58
2023-03-22T11:02:31.053Z,2.20
2023-03-22T11:05:07.096Z,3.95
2023-03-22T11:07:45.472Z,1.60
2023-03-22T11:10:22.243Z,2.80
2023-03-22T11:12:56.999Z,1.85
2023-03-22T11:15:25.982Z,1.20
2023-03-22T11:18:06.963Z,2.10
2023-03-22T11:20:35.287Z,2.65
2023-03-22T11:23:24.329Z,2.50
2023-03-22T11:26:10.127Z,3.17
2023-03-22T11:29:15.117Z,1.70
2023-03-22T11:32:01.432Z,2.40
2023-03-22T11:34:32.003Z,1.23
2023-03-22T11:37:15.738Z,3.78
2023-03-22T11:39:59.848Z,4.32
2023-03-22T11:42:27.494Z,2.40
2023-03-22T11:44:57.038Z,2.67
2023-03-22T11:47:40.439Z,1.45
2023-03-22T11:50:36.421Z,3.63
2023-03-22T11:53:10.803Z,1.05
2023-03-22T11:55:38.305Z,2.42
2023-03-22T11:58:55.056Z,2.45
2023-03-22T12:01:40.865Z,0.88
2023-03-22T12:04:15.276Z,1.60
2023-03-22T12:06:50.403Z,2.20
2023-03-22T12:10:03.847Z,0.60
2023-03-22T12:12:42.218Z,1.20
2023-03-22T12:16:07.056Z,1.60
2023-03-22T12:19:32.537Z,1.35
2023-03-22T12:22:46.320Z,1.30
2023-03-22T12:25:24.896Z,0.93
2023-03-22T12:27:58.565Z,2.67
2023-03-22T12:30:37.663Z,2.13
2023-03-22T12:33:18.760Z,2.20
2023-03-22T12:35:48.399Z,1.27
2023-03-22T12:38:40.547Z,1.77
2023-03-22T12:41:16.510Z,1.55
2023-03-22T12:44:13.928Z,2.20
2023-03-22T12:47:01.781Z,1.90
2023-03-22T12:50:16.085Z,2.55
2023-03-22T12:53:16.214Z,2.03
2023-03-22T12:55:46.159Z,1.48
2023-03-22T12:58:23.757Z,2.22
2023-03-22T13:01:14.084Z,2.10
2023-03-22T13:04:22.295Z,1.52
2023-03-22T13:06:55.336Z,1.73
2023-03-22T13:09:40.774Z,2.63
2023-03-22T13:12:16.942Z,1.70
2023-03-22T13:15:28.511Z,2.45
2023-03-22T13:17:59.220Z,1.23
2023-03-22T13:20:31.140Z,1.92
2023-03-22T13:23:01.395Z,3.13
2023-03-22T13:25:38.677Z,3.90
2023-03-22T13:28:29.615Z,2.25
2023-03-22T13:30:59.317Z,2.20
2023-03-22T13:33:34.713Z,2.05
2023-03-22T13:36:25.286Z,2.22
2023-03-22T13:39:02.762Z,1.42
2023-03-22T13:41:36.713Z,4.88
2023-03-22T13:44:30.492Z,2.08
2023-03-22T13:47:01.244Z,3.80
2023-03-22T13:49:49.665Z,3.38
2023-03-22T13:52:41.527Z,1.73
2023-03-22T13:55:51.761Z,4.05
2023-03-22T13:58:53.100Z,2.70
2023-03-22T14:01:47.849Z,2.85
2023-03-22T14:04:23.347Z,1.58
2023-03-22T14:07:06.966Z,2.42
2023-03-22T14:09:43.594Z,1.10
2023-03-22T14:12:32.009Z,1.63
2023-03-22T14:15:04.806Z,1.60
2023-03-22T14:17:55.305Z,2.50
2023-03-22T14:20:30.278Z,3.88
